Time;durP1;ratioP1;P1;durP2;ratioP2;P2;SDS_P1;SDS_P2;PMS_P1;PMS_P2;Temp;Humidity;BMP_temperature;BMP_pressure;BME280_temperature;BME280_humidity;BME280_pressure;Samples;Min_cycle;Max_cycle;Signal;HPM_P1;HPM_P2
2022/07/16 00:03:24;;;;;;;3.65;1.77;;;15.50;99.90;;;;;;4961317;28;20129;-89
2022/07/16 00:05:50;;;;;;;4.25;1.77;;;15.40;99.90;;;;;;4958664;28;20138;-88
2022/07/16 00:08:16;;;;;;;4.05;1.80;;;15.30;99.90;;;;;;4957693;28;20101;-89
2022/07/16 00:10:42;;;;;;;3.10;1.83;;;15.30;99.90;;;;;;4973983;28;20045;-88
2022/07/16 00:13:07;;;;;;;3.50;1.60;;;15.30;99.90;;;;;;4956834;28;20047;-89
2022/07/16 00:15:33;;;;;;;2.40;1.73;;;15.20;99.90;;;;;;4961205;28;20105;-89
2022/07/16 00:20:43;;;;;;;1.52;1.42;;;15.20;99.90;;;;;;4980491;28;20054;-89
2022/07/16 00:23:08;;;;;;;2.20;1.60;;;15.20;99.90;;;;;;4976193;28;20154;-88
2022/07/16 00:25:34;;;;;;;2.88;1.92;;;15.30;99.90;;;;;;4993895;28;20111;-88
2022/07/16 00:28:00;;;;;;;2.83;2.05;;;15.30;99.90;;;;;;4990621;28;20097;-88
2022/07/16 00:30:26;;;;;;;3.63;1.92;;;15.40;99.90;;;;;;4983023;28;20053;-88
2022/07/16 00:32:52;;;;;;;4.57;1.63;;;15.40;99.90;;;;;;4977235;28;20482;-89
2022/07/16 00:35:18;;;;;;;4.53;1.95;;;15.50;99.90;;;;;;4977171;28;20054;-89
2022/07/16 00:37:43;;;;;;;3.72;2.05;;;15.60;99.90;;;;;;4993716;28;20502;-89
2022/07/16 00:40:09;;;;;;;4.05;1.73;;;15.60;99.90;;;;;;4976774;28;20046;-89
2022/07/16 00:42:35;;;;;;;2.90;1.80;;;15.60;99.90;;;;;;4993497;28;20390;-89
2022/07/16 00:45:00;;;;;;;2.95;2.25;;;15.70;99.90;;;;;;4990503;28;20058;-88
2022/07/16 00:47:26;;;;;;;1.98;1.77;;;15.70;99.90;;;;;;4981441;28;20061;-88
2022/07/16 00:49:52;;;;;;;3.58;1.70;;;15.70;99.90;;;;;;4993186;28;20050;-89
2022/07/16 00:52:17;;;;;;;2.17;1.80;;;15.80;99.90;;;;;;4992760;28;20049;-88
2022/07/16 00:54:43;;;;;;;2.67;1.92;;;15.80;99.90;;;;;;4977054;28;20055;-87
2022/07/16 00:57:09;;;;;;;3.17;1.80;;;15.80;99.90;;;;;;4992355;28;20053;-89
2022/07/16 00:59:34;;;;;;;2.70;1.85;;;15.90;99.90;;;;;;4976658;28;20157;-89
2022/07/16 01:02:00;;;;;;;2.25;2.00;;;15.90;99.90;;;;;;4976857;28;20096;-89
2022/07/16 01:04:26;;;;;;;2.33;1.70;;;15.90;99.90;;;;;;4977124;28;20054;-89
2022/07/16 01:06:51;;;;;;;4.20;1.77;;;15.90;99.90;;;;;;4977220;28;20050;-88
2022/07/16 01:09:17;;;;;;;3.00;1.95;;;15.90;99.90;;;;;;4977692;28;20042;-89
2022/07/16 01:11:44;;;;;;;2.00;1.80;;;15.90;99.90;;;;;;4977649;28;20054;-88
2022/07/16 01:14:09;;;;;;;1.85;1.75;;;15.90;99.90;;;;;;4975681;28;20045;-87
2022/07/16 01:16:35;;;;;;;5.20;2.20;;;15.90;99.90;;;;;;4966701;28;20050;-89
2022/07/16 01:19:01;;;;;;;3.08;2.15;;;15.90;99.90;;;;;;4956233;28;20482;-90
2022/07/16 01:21:26;;;;;;;3.70;2.28;;;15.80;99.90;;;;;;4948325;28;20101;-90
2022/07/16 01:23:52;;;;;;;3.90;2.58;;;15.70;99.90;;;;;;4994426;28;20054;-89
2022/07/16 01:26:18;;;;;;;3.67;2.40;;;15.60;99.90;;;;;;4976311;28;20046;-90
2022/07/16 01:28:43;;;;;;;3.30;2.42;;;15.60;99.90;;;;;;4961218;28;20050;-90
2022/07/16 01:31:10;;;;;;;4.47;3.03;;;15.50;99.90;;;;;;4944375;28;20483;-88
2022/07/16 01:33:37;;;;;;;5.78;3.40;;;15.60;99.90;;;;;;4976904;28;20073;-89
2022/07/16 01:36:10;;;;;;;5.45;3.30;;;15.50;99.90;;;;;;4980648;28;20065;-88
2022/07/16 01:38:40;;;;;;;4.68;3.55;;;15.50;99.90;;;;;;4980887;28;20054;-87
2022/07/16 01:41:06;;;;;;;3.92;3.60;;;15.40;99.90;;;;;;4964162;28;20105;-89
2022/07/16 01:43:32;;;;;;;6.18;3.65;;;15.40;99.90;;;;;;4978887;28;20084;-89
2022/07/16 01:45:57;;;;;;;4.82;3.38;;;15.40;99.90;;;;;;4990289;28;20078;-89
2022/07/16 01:48:23;;;;;;;4.25;3.53;;;15.40;99.90;;;;;;4987353;28;20129;-89
2022/07/16 01:50:49;;;;;;;4.22;3.15;;;15.40;99.90;;;;;;4964358;28;20046;-90
2022/07/16 01:53:15;;;;;;;4.20;3.45;;;15.30;99.90;;;;;;4962621;28;20657;-88
2022/07/16 01:55:41;;;;;;;4.05;3.40;;;15.30;99.90;;;;;;4962390;28;20564;-91
2022/07/16 01:58:07;;;;;;;3.97;3.45;;;15.30;99.90;;;;;;4948280;28;20047;-90
2022/07/16 02:00:34;;;;;;;5.53;3.65;;;14.70;99.90;;;;;;4961206;28;20181;-90
2022/07/16 02:03:00;;;;;;;4.45;3.42;;;15.30;99.90;;;;;;4961664;28;20046;-91
2022/07/16 02:05:26;;;;;;;3.40;3.10;;;15.30;99.90;;;;;;4961048;28;20084;-90
2022/07/16 02:07:52;;;;;;;5.45;3.28;;;15.30;99.90;;;;;;4962093;28;20050;-90
2022/07/16 02:10:17;;;;;;;4.57;3.25;;;15.30;99.90;;;;;;4960952;28;20057;-89
2022/07/16 02:12:43;;;;;;;3.60;2.95;;;15.30;99.90;;;;;;4976231;28;20058;-90
2022/07/16 02:15:09;;;;;;;3.60;3.10;;;15.30;99.90;;;;;;4966463;28;20062;-88
2022/07/16 02:17:35;;;;;;;4.18;3.08;;;15.30;99.90;;;;;;4975622;28;20042;-89
2022/07/16 02:20:02;;;;;;;8.27;3.20;;;15.30;99.90;;;;;;4975810;28;20109;-89
2022/07/16 02:22:28;;;;;;;3.78;2.60;;;15.20;99.90;;;;;;4975711;28;20054;-90
2022/07/16 02:24:53;;;;;;;3.85;2.38;;;15.20;99.90;;;;;;4975879;28;20121;-89
2022/07/16 02:27:19;;;;;;;4.28;2.65;;;15.20;99.90;;;;;;4975737;28;20046;-90
2022/07/16 02:29:45;;;;;;;3.42;3.00;;;15.10;99.90;;;;;;4975854;28;20050;-89
2022/07/16 02:32:10;;;;;;;2.85;2.60;;;15.10;99.90;;;;;;4992082;28;20121;-91
2022/07/16 02:34:36;;;;;;;4.22;2.70;;;15.10;99.90;;;;;;4975200;28;20046;-89
2022/07/16 02:37:02;;;;;;;4.47;2.72;;;15.10;99.90;;;;;;4991862;28;20058;-90
2022/07/16 02:39:27;;;;;;;5.20;3.42;;;15.10;99.90;;;;;;4991580;28;20054;-91
2022/07/16 02:41:53;;;;;;;3.58;2.75;;;15.10;99.90;;;;;;4959658;28;20050;-91
2022/07/16 02:44:19;;;;;;;2.80;2.60;;;15.10;99.90;;;;;;4974486;28;20430;-88
2022/07/16 02:46:44;;;;;;;3.67;2.70;;;15.10;99.90;;;;;;4975025;28;20058;-88
2022/07/16 02:49:10;;;;;;;4.28;2.72;;;15.00;99.90;;;;;;4991639;28;20066;-90
2022/07/16 02:51:35;;;;;;;2.75;2.55;;;15.00;99.90;;;;;;4991114;28;20126;-86
2022/07/16 02:54:01;;;;;;;3.75;2.50;;;15.00;99.90;;;;;;4959546;28;20047;-88
2022/07/16 02:56:27;;;;;;;2.90;2.25;;;15.00;99.90;;;;;;4974811;28;20050;-90
2022/07/16 02:58:53;;;;;;;4.93;2.40;;;15.00;99.90;;;;;;4975312;28;20080;-88
2022/07/16 03:01:19;;;;;;;3.95;2.60;;;15.00;99.90;;;;;;4978587;28;20047;-89
2022/07/16 03:03:45;;;;;;;4.07;2.28;;;15.00;99.90;;;;;;4966374;28;20492;-90
2022/07/16 03:06:10;;;;;;;6.20;2.55;;;15.00;99.90;;;;;;4948243;28;20055;-90
2022/07/16 03:08:36;;;;;;;4.30;2.58;;;15.00;99.90;;;;;;4972327;28;20042;-89
2022/07/16 03:11:01;;;;;;;5.88;2.40;;;15.00;99.90;;;;;;4991178;28;20074;-89
2022/07/16 03:13:27;;;;;;;3.47;2.40;;;14.90;99.90;;;;;;4974565;28;20042;-89
2022/07/16 03:15:53;;;;;;;5.97;2.70;;;14.90;99.90;;;;;;4974992;28;20062;-89
2022/07/16 03:18:20;;;;;;;4.35;2.20;;;14.90;99.90;;;;;;4992224;28;20406;-89
2022/07/16 03:20:45;;;;;;;5.15;2.42;;;14.90;99.90;;;;;;4958115;28;20410;-87
2022/07/16 03:23:11;;;;;;;5.03;2.33;;;14.80;99.90;;;;;;4959105;28;20050;-88
2022/07/16 03:25:37;;;;;;;2.92;2.40;;;14.70;99.90;;;;;;4974259;28;20046;-88
2022/07/16 03:28:02;;;;;;;4.40;2.53;;;14.70;99.90;;;;;;4972087;28;20086;-87
2022/07/16 03:30:28;;;;;;;2.95;2.25;;;14.60;99.90;;;;;;4969921;28;20047;-90
2022/07/16 03:32:54;;;;;;;5.05;2.40;;;14.60;99.90;;;;;;4954167;28;20101;-89
2022/07/16 03:35:20;;;;;;;3.20;2.28;;;14.50;99.90;;;;;;4986857;28;20592;-88
2022/07/16 03:40:30;;;;;;;4.53;2.60;;;14.40;99.90;;;;;;4975187;28;20057;-88
2022/07/16 03:42:55;;;;;;;7.50;2.90;;;14.40;99.90;;;;;;4975532;28;20039;-89
2022/07/16 03:45:21;;;;;;;4.65;2.38;;;14.40;99.90;;;;;;4974434;28;20049;-89
2022/07/16 03:47:49;;;;;;;3.45;2.33;;;14.30;99.90;;;;;;4974751;28;20490;-89
2022/07/16 03:50:14;;;;;;;4.50;2.17;;;14.30;99.90;;;;;;4974618;28;20047;-88
2022/07/16 03:52:40;;;;;;;5.32;2.33;;;14.30;99.90;;;;;;4958104;28;20046;-90
2022/07/16 03:55:06;;;;;;;4.07;2.78;;;14.30;99.90;;;;;;4974779;28;20082;-90
2022/07/16 03:57:31;;;;;;;2.45;2.08;;;14.30;99.90;;;;;;4977902;28;20047;-90
2022/07/16 03:59:57;;;;;;;3.00;2.45;;;14.30;99.90;;;;;;4979341;28;20097;-89
2022/07/16 04:02:23;;;;;;;7.07;2.60;;;14.40;99.90;;;;;;4974165;28;20066;-89
2022/07/16 04:04:49;;;;;;;3.30;2.20;;;14.40;99.90;;;;;;4974589;28;20058;-89
2022/07/16 04:07:14;;;;;;;5.38;2.47;;;14.40;99.90;;;;;;4958998;28;20375;-89
2022/07/16 04:09:40;;;;;;;2.72;2.25;;;14.40;99.90;;;;;;4973927;28;20050;-89
2022/07/16 04:12:06;;;;;;;4.88;2.22;;;14.40;99.90;;;;;;4973257;28;20038;-89
2022/07/16 04:14:31;;;;;;;4.00;2.28;;;14.40;99.90;;;;;;4973646;28;20417;-89
2022/07/16 04:16:57;;;;;;;5.57;2.47;;;14.40;99.90;;;;;;4958250;28;20047;-90
2022/07/16 04:19:22;;;;;;;4.30;2.25;;;14.40;99.90;;;;;;4974362;28;20086;-89
2022/07/16 04:21:48;;;;;;;7.90;2.40;;;14.40;99.90;;;;;;4968307;28;20086;-89
2022/07/16 04:24:14;;;;;;;6.53;2.70;;;14.40;99.90;;;;;;4993806;28;20042;-88
2022/07/16 04:26:39;;;;;;;3.72;2.45;;;14.40;99.90;;;;;;4977162;28;20050;-89
2022/07/16 04:29:05;;;;;;;4.22;2.30;;;14.40;99.90;;;;;;4977643;28;20453;-89
2022/07/16 04:31:31;;;;;;;6.60;2.10;;;14.30;99.90;;;;;;4977161;28;20037;-89
2022/07/16 04:33:56;;;;;;;6.22;2.13;;;14.30;99.90;;;;;;4977761;28;20054;-88
2022/07/16 04:36:22;;;;;;;6.00;2.10;;;14.40;99.90;;;;;;4993850;28;20042;-88
2022/07/16 04:38:47;;;;;;;4.53;2.40;;;14.30;99.90;;;;;;4993239;28;20056;-89
2022/07/16 04:41:13;;;;;;;6.43;2.10;;;14.40;99.90;;;;;;4981115;28;20066;-89
2022/07/16 04:43:39;;;;;;;5.60;2.08;;;14.40;99.90;;;;;;4976944;28;20046;-89
2022/07/16 04:46:04;;;;;;;3.45;1.73;;;14.50;99.90;;;;;;4976862;28;20117;-89
2022/07/16 04:48:30;;;;;;;4.13;2.25;;;14.90;99.90;;;;;;4977118;28;20046;-89
2022/07/16 04:50:56;;;;;;;4.25;1.60;;;15.60;99.90;;;;;;4994589;28;20406;-89
2022/07/16 04:53:21;;;;;;;4.78;1.83;;;16.30;99.90;;;;;;4963186;28;20050;-88
2022/07/16 04:55:47;;;;;;;5.25;1.60;;;16.80;99.90;;;;;;4976619;28;20050;-88
2022/07/16 04:58:14;;;;;;;3.25;1.58;;;17.20;99.90;;;;;;4976796;28;20495;-88
2022/07/16 05:00:40;;;;;;;2.90;1.48;;;17.60;99.90;;;;;;4992963;28;20046;-89
2022/07/16 05:03:06;;;;;;;2.33;1.55;;;17.70;99.90;;;;;;4976833;28;20398;-89
2022/07/16 05:05:33;;;;;;;3.47;1.70;;;17.70;99.90;;;;;;4998953;28;20045;-89
2022/07/16 05:08:04;;;;;;;4.72;1.42;;;18.00;99.90;;;;;;4988765;28;20046;-88
2022/07/16 05:10:30;;;;;;;4.88;1.60;;;18.10;99.90;;;;;;4992359;28;20050;-88
2022/07/16 05:12:56;;;;;;;3.78;1.30;;;17.90;99.90;;;;;;4994793;28;20049;-88
2022/07/16 05:15:22;;;;;;;2.10;1.33;;;17.10;99.90;;;;;;4992255;28;20058;-88
2022/07/16 05:17:48;;;;;;;3.65;1.58;;;16.80;99.90;;;;;;4987848;28;20034;-88
2022/07/16 05:20:13;;;;;;;4.05;1.63;;;16.90;99.90;;;;;;4971909;28;20181;-88
2022/07/16 05:22:39;;;;;;;5.78;1.70;;;16.70;99.90;;;;;;4972902;28;20538;-85
2022/07/16 05:25:06;;;;;;;2.85;1.50;;;16.40;99.90;;;;;;4984670;28;20053;-87
2022/07/16 05:27:31;;;;;;;4.10;1.67;;;16.30;99.90;;;;;;4977328;28;20136;-88
2022/07/16 05:29:57;;;;;;;4.90;1.35;;;16.20;99.90;;;;;;4977075;28;20105;-89
2022/07/16 05:32:22;;;;;;;3.65;1.67;;;16.10;99.90;;;;;;4993716;28;20046;-88
2022/07/16 05:34:48;;;;;;;5.35;1.58;;;16.00;99.90;;;;;;4974336;28;20058;-89
2022/07/16 05:37:14;;;;;;;5.18;1.50;;;16.00;99.90;;;;;;4973377;28;20055;-89
2022/07/16 05:39:39;;;;;;;5.97;1.55;;;16.30;99.90;;;;;;4957121;28;20046;-89
2022/07/16 05:42:05;;;;;;;4.43;1.40;;;17.10;99.90;;;;;;4966599;28;20058;-88
2022/07/16 05:44:31;;;;;;;5.13;1.25;;;17.90;99.90;;;;;;4976498;28;20053;-89
2022/07/16 05:46:56;;;;;;;4.80;1.27;;;18.40;99.90;;;;;;4976317;28;20043;-88
2022/07/16 05:49:22;;;;;;;4.72;1.45;;;19.10;99.90;;;;;;4992348;28;20050;-88
2022/07/16 05:51:48;;;;;;;3.10;1.75;;;20.00;99.90;;;;;;4975353;28;20046;-89
2022/07/16 05:54:13;;;;;;;6.65;1.20;;;20.10;99.90;;;;;;4975613;28;20081;-87
2022/07/16 05:56:39;;;;;;;2.97;1.17;;;20.10;99.90;;;;;;4975246;28;20037;-89
2022/07/16 05:59:04;;;;;;;6.03;1.42;;;20.50;99.90;;;;;;4991305;28;20042;-84
2022/07/16 06:01:30;;;;;;;2.78;1.20;;;21.20;99.90;;;;;;4975760;28;20141;-86
2022/07/16 06:03:56;;;;;;;2.67;1.20;;;21.40;99.90;;;;;;4959069;28;20137;-91
2022/07/16 06:06:21;;;;;;;2.72;1.20;;;21.80;99.90;;;;;;4992295;28;20049;-88
2022/07/16 06:08:47;;;;;;;6.05;1.40;;;21.90;99.90;;;;;;4991624;28;20128;-89
2022/07/16 06:11:13;;;;;;;2.90;1.10;;;21.90;99.90;;;;;;4976167;28;20108;-89
2022/07/16 06:13:38;;;;;;;1.48;1.00;;;22.20;99.90;;;;;;4992267;28;20487;-89
2022/07/16 06:16:07;;;;;;;3.55;0.95;;;22.50;99.90;;;;;;4974447;28;20050;-89
2022/07/16 06:18:33;;;;;;;3.30;1.20;;;22.10;99.90;;;;;;4976032;28;20133;-88
2022/07/16 06:20:59;;;;;;;3.03;1.10;;;22.60;99.90;;;;;;4974217;28;20049;-89
2022/07/16 06:23:24;;;;;;;5.53;1.30;;;22.60;99.90;;;;;;4965697;28;20401;-87
2022/07/16 06:25:50;;;;;;;3.70;0.77;;;22.00;99.90;;;;;;4958550;28;20142;-87
2022/07/16 06:28:15;;;;;;;3.50;1.20;;;21.50;99.90;;;;;;4975022;28;20072;-87
2022/07/16 06:30:41;;;;;;;3.60;1.20;;;20.80;99.90;;;;;;4991121;28;20051;-87
2022/07/16 06:33:07;;;;;;;3.42;1.10;;;21.00;99.90;;;;;;4974634;28;20042;-87
2022/07/16 06:35:32;;;;;;;6.80;1.30;;;20.20;99.90;;;;;;4963630;28;20050;-85
2022/07/16 06:37:58;;;;;;;3.90;0.95;;;21.10;99.90;;;;;;4955041;28;20054;-87
2022/07/16 06:40:24;;;;;;;2.88;1.05;;;21.60;99.90;;;;;;4955019;28;20089;-87
2022/07/16 06:42:50;;;;;;;4.93;1.13;;;21.90;99.90;;;;;;4955244;28;20046;-87
2022/07/16 06:45:15;;;;;;;3.83;1.25;;;22.30;99.90;;;;;;4971517;28;20079;-87
2022/07/16 06:47:41;;;;;;;3.10;0.88;;;21.90;99.90;;;;;;4955491;28;20059;-87
2022/07/16 06:50:07;;;;;;;5.03;1.30;;;22.10;99.90;;;;;;4971613;28;20054;-87
2022/07/16 06:52:32;;;;;;;2.05;0.80;;;22.60;99.90;;;;;;4955225;28;20042;-86
2022/07/16 06:54:58;;;;;;;4.50;1.00;;;22.00;99.90;;;;;;4970959;28;20093;-86
2022/07/16 06:57:24;;;;;;;3.03;1.15;;;22.20;99.90;;;;;;4955047;28;20058;-87
2022/07/16 06:59:49;;;;;;;4.82;1.17;;;22.00;99.90;;;;;;4954923;28;20058;-87
2022/07/16 07:02:15;;;;;;;2.83;0.90;;;21.70;99.90;;;;;;4971219;28;20046;-87
2022/07/16 07:04:41;;;;;;;5.45;0.88;;;22.30;99.90;;;;;;4971297;28;20046;-87
2022/07/16 07:07:07;;;;;;;3.03;1.10;;;22.40;99.90;;;;;;4970547;28;20081;-88
2022/07/16 07:09:32;;;;;;;2.92;0.90;;;22.40;99.90;;;;;;4955536;28;20117;-88
2022/07/16 07:11:58;;;;;;;3.55;0.90;;;23.10;99.90;;;;;;4971193;28;20599;-85
2022/07/16 07:14:24;;;;;;;3.33;0.63;;;23.20;99.90;;;;;;4970706;28;20071;-88
2022/07/16 07:16:50;;;;;;;3.10;0.80;;;22.70;99.90;;;;;;4954753;28;20043;-88
2022/07/16 07:19:15;;;;;;;2.63;0.80;;;23.30;99.90;;;;;;4939346;28;20050;-88
2022/07/16 07:21:41;;;;;;;4.53;0.90;;;23.60;99.90;;;;;;4948240;28;20487;-88
2022/07/16 07:24:06;;;;;;;3.58;0.80;;;23.70;99.90;;;;;;4974415;28;20126;-88
2022/07/16 07:26:32;;;;;;;3.85;0.77;;;23.30;99.90;;;;;;4974148;28;20097;-88
2022/07/16 07:28:58;;;;;;;1.88;0.82;;;22.80;99.90;;;;;;4958390;28;20124;-87
2022/07/16 07:31:24;;;;;;;1.65;0.82;;;21.90;99.90;;;;;;4974191;28;20121;-88
2022/07/16 07:33:49;;;;;;;5.95;1.00;;;21.10;99.90;;;;;;4958608;28;20482;-86
2022/07/16 07:36:15;;;;;;;3.53;1.10;;;20.90;99.90;;;;;;4991093;28;20034;-85
2022/07/16 07:38:41;;;;;;;4.40;0.93;;;19.90;99.90;;;;;;4973786;28;20070;-86
2022/07/16 07:41:06;;;;;;;5.90;1.30;;;19.20;99.90;;;;;;4973746;28;20245;-86
2022/07/16 07:43:32;;;;;;;3.30;0.90;;;20.00;99.90;;;;;;4971633;28;20070;-86
2022/07/16 07:45:58;;;;;;;4.30;0.90;;;20.00;99.90;;;;;;4984398;28;20082;-86
2022/07/16 07:48:23;;;;;;;2.55;0.80;;;19.90;99.90;;;;;;4973594;28;20054;-87
2022/07/16 07:50:49;;;;;;;3.80;0.90;;;19.30;99.90;;;;;;4957702;28;20050;-87
2022/07/16 07:53:14;;;;;;;2.80;0.80;;;19.10;99.90;;;;;;4990626;28;20054;-86
2022/07/16 07:55:41;;;;;;;1.67;0.90;;;18.80;99.90;;;;;;4973747;28;20051;-88
2022/07/16 07:58:07;;;;;;;3.42;0.80;;;19.30;99.90;;;;;;4957746;28;20096;-87
2022/07/16 08:00:33;;;;;;;2.67;0.73;;;20.00;99.90;;;;;;4958145;28;20054;-88
2022/07/16 08:02:58;;;;;;;3.08;0.80;;;21.00;99.90;;;;;;4972431;28;20046;-88
2022/07/16 08:05:24;;;;;;;2.28;0.70;;;22.10;99.90;;;;;;4949820;28;20050;-90
2022/07/16 08:07:50;;;;;;;2.28;0.77;;;22.50;99.70;;;;;;4969036;28;20046;-88
2022/07/16 08:10:15;;;;;;;1.65;0.88;;;23.40;97.80;;;;;;4938474;28;20126;-90
2022/07/16 08:12:41;;;;;;;2.53;0.60;;;23.10;98.10;;;;;;4957053;28;20062;-90
2022/07/16 08:15:08;;;;;;;3.72;0.70;;;23.60;98.40;;;;;;4944820;28;20051;-94
2022/07/16 08:17:34;;;;;;;3.80;0.70;;;23.90;96.80;;;;;;4976569;28;20039;-95
2022/07/16 08:19:59;;;;;;;2.25;0.57;;;23.70;97.10;;;;;;4960764;28;20074;-94
2022/07/16 08:22:25;;;;;;;3.90;0.80;;;23.90;97.30;;;;;;4958996;28;20102;-91
2022/07/16 08:27:36;;;;;;;1.27;0.60;;;23.00;97.90;;;;;;4992627;28;20096;-94
2022/07/16 08:30:02;;;;;;;2.63;1.08;;;21.70;98.10;;;;;;4977208;28;20132;-91
2022/07/16 08:32:28;;;;;;;1.50;0.80;;;20.40;99.30;;;;;;4991337;28;20054;-92
2022/07/16 08:34:54;;;;;;;3.97;0.90;;;21.10;99.00;;;;;;4974175;28;20042;-90
2022/07/16 08:37:35;;;;;;;1.67;0.52;;;22.20;99.00;;;;;;4996053;28;20115;-89
2022/07/16 08:40:02;;;;;;;2.47;1.17;;;22.90;98.30;;;;;;4969578;28;20031;-90
2022/07/16 08:42:28;;;;;;;1.63;0.75;;;22.50;98.70;;;;;;4997024;28;20022;-91
2022/07/16 08:44:54;;;;;;;2.08;0.80;;;22.40;98.30;;;;;;4982214;28;20068;-91
2022/07/16 08:47:19;;;;;;;2.58;0.80;;;21.30;98.80;;;;;;4998209;28;20575;-90
2022/07/16 08:49:45;;;;;;;3.47;0.80;;;20.80;99.70;;;;;;4990426;28;20061;-91
2022/07/16 08:52:11;;;;;;;5.10;0.80;;;20.70;99.90;;;;;;4957288;28;20052;-91
2022/07/16 08:54:36;;;;;;;5.95;1.08;;;20.50;99.90;;;;;;4975547;28;20089;-93
2022/07/16 08:57:02;;;;;;;3.00;0.90;;;21.00;99.90;;;;;;4979520;28;20042;-92
2022/07/16 08:59:29;;;;;;;2.45;0.80;;;21.10;99.90;;;;;;4994453;28;20491;-92
2022/07/16 09:01:58;;;;;;;2.38;0.80;;;21.20;99.90;;;;;;4975405;28;20038;-93
2022/07/16 09:04:23;;;;;;;3.03;0.70;;;21.60;99.90;;;;;;4993363;28;20053;-93
2022/07/16 09:06:49;;;;;;;1.92;0.70;;;22.10;99.90;;;;;;4957078;28;20042;-93
2022/07/16 09:09:15;;;;;;;3.53;0.90;;;21.80;99.90;;;;;;4977547;28;20050;-95
2022/07/16 09:11:44;;;;;;;4.00;0.82;;;21.40;99.90;;;;;;4974563;28;20035;-95
2022/07/16 09:14:14;;;;;;;3.05;0.73;;;21.10;99.90;;;;;;4977988;28;20050;-92
2022/07/16 09:16:47;;;;;;;;;;;20.60;99.90;;;;;;4962533;28;20054;-95
2022/07/16 09:19:13;;;;;;;4.45;1.05;;;20.30;99.90;;;;;;4975096;28;19922;-92
2022/07/16 09:22:04;;;;;;;2.85;0.95;;;20.50;99.90;;;;;;4960444;28;20054;-95
2022/07/16 09:24:54;;;;;;;2.55;0.80;;;21.00;99.90;;;;;;4963018;28;20050;-93
2022/07/16 09:27:23;;;;;;;4.30;0.98;;;20.70;99.90;;;;;;4942041;28;20046;-92
2022/07/16 09:29:58;;;;;;;3.53;1.23;;;20.30;99.90;;;;;;4977029;28;20620;-90
2022/07/16 09:32:36;;;;;;;5.53;1.02;;;19.80;99.90;;;;;;4952864;28;20054;-93
2022/07/16 09:35:04;;;;;;;2.58;0.90;;;19.60;99.90;;;;;;4939668;28;20043;-86
2022/07/16 09:37:52;;;;;;;4.65;0.98;;;19.70;99.90;;;;;;4956779;28;20093;-90
2022/07/16 09:40:41;;;;;;;5.10;1.05;;;19.50;99.90;;;;;;4947933;28;20046;-89
2022/07/16 09:43:15;;;;;;;2.70;1.10;;;20.20;99.90;;;;;;4954528;28;20071;-89
2022/07/16 09:45:43;;;;;;;5.82;0.95;;;20.60;99.90;;;;;;4956536;28;20533;-86
2022/07/16 09:48:19;;;;;;;3.17;1.27;;;22.00;99.90;;;;;;4947562;28;20051;-88
2022/07/16 09:50:44;;;;;;;3.25;1.00;;;22.50;99.90;;;;;;4944386;28;20086;-87
2022/07/16 09:53:18;;;;;;;3.95;0.90;;;23.00;99.90;;;;;;4957370;28;20108;-87
2022/07/16 09:56:09;;;;;;;2.17;1.10;;;23.00;99.90;;;;;;4940897;28;20058;-88
2022/07/16 09:58:36;;;;;;;1.65;0.88;;;22.60;99.90;;;;;;4955977;28;20046;-87
2022/07/16 10:01:02;;;;;;;2.58;0.93;;;21.60;99.90;;;;;;4939402;28;20479;-88
2022/07/16 10:03:28;;;;;;;3.25;1.08;;;21.60;99.90;;;;;;4956440;28;20039;-88
2022/07/16 10:05:54;;;;;;;1.98;0.88;;;21.20;99.90;;;;;;4957904;28;20392;-87
2022/07/16 10:08:19;;;;;;;3.47;1.55;;;21.10;99.90;;;;;;4968500;28;20105;-86
2022/07/16 10:10:45;;;;;;;2.58;0.90;;;22.20;99.50;;;;;;4955785;28;20061;-87
2022/07/16 10:13:11;;;;;;;2.25;0.88;;;23.00;99.90;;;;;;4960449;28;20104;-93
2022/07/16 10:15:37;;;;;;;1.98;0.90;;;23.30;98.90;;;;;;4962120;28;20047;-88
2022/07/16 10:18:03;;;;;;;2.83;0.93;;;23.50;97.30;;;;;;4988833;28;20042;-88
2022/07/16 10:20:34;;;;;;;4.22;1.10;;;23.00;98.40;;;;;;4970617;28;20062;-93
2022/07/16 10:22:59;;;;;;;6.57;1.17;;;22.90;98.90;;;;;;4965322;28;20487;-91
2022/07/16 10:25:26;;;;;;;2.72;1.45;;;22.30;99.00;;;;;;4975319;28;20061;-90
2022/07/16 10:27:52;;;;;;;4.65;1.00;;;21.70;99.70;;;;;;4970683;28;20053;-90
2022/07/16 10:30:21;;;;;;;1.67;0.80;;;22.60;99.20;;;;;;4973226;28;20442;-91
2022/07/16 10:32:59;;;;;;;4.15;1.00;;;22.60;99.50;;;;;;4987408;28;20042;-92
2022/07/16 10:35:41;;;;;;;2.85;0.90;;;23.40;98.30;;;;;;4996754;28;20058;-92
2022/07/16 10:38:10;;;;;;;4.40;1.20;;;23.00;97.90;;;;;;4993262;28;20078;-93
2022/07/16 10:40:37;;;;;;;1.27;0.80;;;23.10;97.90;;;;;;4977822;28;20047;-89
2022/07/16 10:43:09;;;;;;;2.20;0.80;;;24.20;97.00;;;;;;4972096;28;20483;-87
2022/07/16 10:45:58;;;;;;;1.52;0.82;;;24.30;97.10;;;;;;4955331;28;20054;-86
2022/07/16 10:48:25;;;;;;;1.83;0.90;;;24.30;96.80;;;;;;4953664;28;20066;-92
2022/07/16 10:51:09;;;;;;;2.42;0.90;;;23.80;96.30;;;;;;4946154;28;20055;-90
2022/07/16 10:54:01;;;;;;;2.72;1.17;;;23.90;96.80;;;;;;4957684;28;20227;-90
2022/07/16 10:56:46;;;;;;;1.90;0.85;;;24.50;95.80;;;;;;4955079;28;20089;-92
2022/07/16 10:59:19;;;;;;;2.05;0.85;;;23.40;96.60;;;;;;4957813;28;20050;-94
2022/07/16 11:01:46;;;;;;;;;;;23.40;96.00;;;;;;4972083;28;20078;-89
2022/07/16 11:04:12;;;;;;;2.35;0.70;;;23.10;97.00;;;;;;4973731;28;19976;-91
2022/07/16 11:06:39;;;;;;;1.60;0.70;;;22.80;97.60;;;;;;4939823;28;20043;-93
2022/07/16 11:09:05;;;;;;;3.08;0.80;;;23.30;98.20;;;;;;4940080;28;20129;-93
2022/07/16 11:11:39;;;;;;;2.90;1.02;;;23.30;97.80;;;;;;4946015;28;20050;-89
2022/07/16 11:14:05;;;;;;;2.08;1.00;;;23.10;97.70;;;;;;4956005;28;20050;-93
2022/07/16 11:16:31;;;;;;;5.32;1.05;;;23.60;97.40;;;;;;4956704;28;20050;-94
2022/07/16 11:19:01;;;;;;;3.17;0.93;;;22.80;97.60;;;;;;4969878;28;20055;-90
2022/07/16 11:21:27;;;;;;;3.90;0.70;;;23.10;97.50;;;;;;4962571;28;20112;-90
2022/07/16 11:24:00;;;;;;;2.75;1.02;;;22.40;98.40;;;;;;4976286;28;20132;-93
2022/07/16 11:26:27;;;;;;;3.33;0.90;;;21.90;98.00;;;;;;4976344;28;20125;-91
2022/07/16 11:28:59;;;;;;;3.83;0.88;;;22.90;98.50;;;;;;4975416;28;20065;-92
2022/07/16 11:31:32;;;;;;;3.30;0.90;;;23.90;98.30;;;;;;4976382;28;20118;-92
2022/07/16 11:34:03;;;;;;;3.60;1.20;;;24.00;96.70;;;;;;4976213;28;20054;-91
2022/07/16 11:36:50;;;;;;;1.98;0.90;;;22.90;97.90;;;;;;4961300;28;20305;-92
2022/07/16 11:39:27;;;;;;;2.70;0.80;;;22.60;97.50;;;;;;4975455;28;20116;-93
2022/07/16 11:41:56;;;;;;;2.45;0.77;;;22.70;97.70;;;;;;4955988;28;20038;-93
2022/07/16 11:44:30;;;;;;;2.38;0.80;;;23.10;97.80;;;;;;4974534;28;20137;-89
2022/07/16 11:47:00;;;;;;;2.47;0.90;;;23.30;97.90;;;;;;4948711;28;20051;-90
2022/07/16 11:49:38;;;;;;;2.35;0.80;;;22.90;97.50;;;;;;4967175;28;20043;-91
2022/07/16 11:52:16;;;;;;;1.30;0.68;;;22.90;97.20;;;;;;4949701;28;20050;-90
2022/07/16 11:54:42;;;;;;;1.45;0.80;;;22.50;96.40;;;;;;4972288;28;20084;-90
2022/07/16 11:57:11;;;;;;;1.35;0.70;;;22.20;97.10;;;;;;4941550;28;20030;-93
2022/07/16 11:59:53;;;;;;;2.00;0.80;;;22.30;97.40;;;;;;4978395;28;20490;-92
2022/07/16 12:02:22;;;;;;;2.00;0.90;;;22.90;97.90;;;;;;4962646;28;20066;-93
2022/07/16 12:04:57;;;;;;;2.50;0.90;;;22.80;97.50;;;;;;4963361;28;20050;-93
2022/07/16 12:07:26;;;;;;;2.53;0.90;;;22.40;98.40;;;;;;4976553;28;20145;-90
2022/07/16 12:09:53;;;;;;;2.45;1.10;;;22.20;98.50;;;;;;4976736;28;20042;-91
2022/07/16 12:12:23;;;;;;;6.15;1.20;;;21.20;98.90;;;;;;4953708;28;20051;-90
2022/07/16 12:14:53;;;;;;;4.90;1.00;;;21.50;99.60;;;;;;4967830;28;20055;-91
2022/07/16 12:17:22;;;;;;;3.08;1.00;;;21.00;99.80;;;;;;4977069;28;20065;-90
2022/07/16 12:20:06;;;;;;;3.03;0.90;;;21.40;99.90;;;;;;4987198;28;20054;-88
2022/07/16 12:22:57;;;;;;;2.95;1.20;;;22.00;99.90;;;;;;4998611;28;20049;-90
2022/07/16 12:25:34;;;;;;;3.60;1.00;;;22.70;99.10;;;;;;4996661;28;20058;-90
2022/07/16 12:28:14;;;;;;;2.50;1.00;;;22.50;99.60;;;;;;4978132;28;20053;-90
2022/07/16 12:30:46;;;;;;;2.35;0.65;;;22.30;99.50;;;;;;4987860;28;20054;-91
2022/07/16 12:33:22;;;;;;;4.68;1.10;;;21.80;99.90;;;;;;4951401;28;20218;-89
2022/07/16 12:35:59;;;;;;;1.92;0.88;;;21.80;99.90;;;;;;4951115;29;20154;-89
2022/07/16 12:38:58;;;;;;;5.93;1.20;;;22.30;99.80;;;;;;4952485;28;20047;-89
2022/07/16 12:41:37;;;;;;;2.92;1.23;;;22.20;99.30;;;;;;4955462;28;20047;-91
2022/07/16 12:44:04;;;;;;;2.78;0.90;;;22.30;98.70;;;;;;4940988;28;20058;-90
2022/07/16 12:46:47;;;;;;;3.30;0.95;;;23.00;98.80;;;;;;4945857;28;20101;-90
2022/07/16 12:49:14;;;;;;;3.83;1.13;;;23.00;98.40;;;;;;4939032;28;20043;-90
2022/07/16 12:51:44;;;;;;;3.85;0.98;;;22.60;98.30;;;;;;4949425;28;20051;-92
2022/07/16 12:54:10;;;;;;;3.30;1.13;;;21.90;98.80;;;;;;4964721;28;20093;-88
2022/07/16 12:59:21;;;;;;;2.28;1.10;;;21.30;99.10;;;;;;4945551;28;20043;-89
2022/07/16 13:01:46;;;;;;;2.42;1.05;;;21.50;99.00;;;;;;4965962;28;20050;-91
2022/07/16 13:04:12;;;;;;;4.03;0.98;;;22.00;99.20;;;;;;4943906;28;20054;-91